sensor_id;sensor_type;location;lat;lon;timestamp;P1;durP1;ratioP1;P2;durP2;ratioP2
12165;SDS011;6146;48.128;11.476;2023-02-15T00:01:40;92.27;;;21.23;;
12165;SDS011;6146;48.128;11.476;2023-02-15T00:04:06;58.20;;;18.27;;
12165;SDS011;6146;48.128;11.476;2023-02-15T00:06:33;33.87;;;16.40;;
12165;SDS011;6146;48.128;11.476;2023-02-15T00:08:59;30.20;;;16.20;;
12165;SDS011;6146;48.128;11.476;2023-02-15T00:11:25;45.20;;;17.20;;
12165;SDS011;6146;48.128;11.476;2023-02-15T00:14:25;49.30;;;16.20;;
12165;SDS011;6146;48.128;11.476;2023-02-15T00:16:51;25.10;;;15.23;;
12165;SDS011;6146;48.128;11.476;2023-02-15T00:19:18;31.87;;;16.13;;
12165;SDS011;6146;48.128;11.476;2023-02-15T00:21:45;108.83;;;21.03;;
12165;SDS011;6146;48.128;11.476;2023-02-15T00:24:12;64.50;;;18.00;;
12165;SDS011;6146;48.128;11.476;2023-02-15T00:26:40;25.33;;;14.23;;
12165;SDS011;6146;48.128;11.476;2023-02-15T00:29:06;32.33;;;16.23;;
12165;SDS011;6146;48.128;11.476;2023-02-15T00:31:32;88.97;;;20.57;;
12165;SDS011;6146;48.128;11.476;2023-02-15T00:34:02;51.13;;;17.77;;
12165;SDS011;6146;48.128;11.476;2023-02-15T00:36:28;49.00;;;17.77;;
12165;SDS011;6146;48.128;11.476;2023-02-15T00:38:53;18.47;;;14.90;;
12165;SDS011;6146;48.128;11.476;2023-02-15T00:41:19;55.10;;;17.83;;
12165;SDS011;6146;48.128;11.476;2023-02-15T00:43:45;80.53;;;19.83;;
12165;SDS011;6146;48.128;11.476;2023-02-15T00:46:10;63.93;;;16.47;;
12165;SDS011;6146;48.128;11.476;2023-02-15T00:48:36;48.97;;;16.23;;
12165;SDS011;6146;48.128;11.476;2023-02-15T00:51:01;52.30;;;16.10;;
12165;SDS011;6146;48.128;11.476;2023-02-15T00:53:27;74.57;;;19.43;;
12165;SDS011;6146;48.128;11.476;2023-02-15T00:55:53;25.37;;;15.43;;
12165;SDS011;6146;48.128;11.476;2023-02-15T00:58:19;38.43;;;16.37;;
12165;SDS011;6146;48.128;11.476;2023-02-15T01:00:45;56.23;;;18.30;;
12165;SDS011;6146;48.128;11.476;2023-02-15T01:03:12;30.30;;;16.20;;
12165;SDS011;6146;48.128;11.476;2023-02-15T01:05:39;36.87;;;17.17;;
12165;SDS011;6146;48.128;11.476;2023-02-15T01:08:05;46.27;;;16.80;;
12165;SDS011;6146;48.128;11.476;2023-02-15T01:10:31;53.63;;;18.23;;
12165;SDS011;6146;48.128;11.476;2023-02-15T01:12:58;33.73;;;16.13;;
12165;SDS011;6146;48.128;11.476;2023-02-15T01:15:24;36.10;;;16.33;;
12165;SDS011;6146;48.128;11.476;2023-02-15T01:17:50;23.10;;;15.97;;
12165;SDS011;6146;48.128;11.476;2023-02-15T01:20:22;65.53;;;18.60;;
12165;SDS011;6146;48.128;11.476;2023-02-15T01:22:49;27.33;;;15.30;;
12165;SDS011;6146;48.128;11.476;2023-02-15T01:25:19;21.37;;;14.77;;
12165;SDS011;6146;48.128;11.476;2023-02-15T01:27:46;57.33;;;17.30;;
12165;SDS011;6146;48.128;11.476;2023-02-15T01:30:12;23.67;;;15.17;;
12165;SDS011;6146;48.128;11.476;2023-02-15T01:32:39;30.63;;;14.77;;
12165;SDS011;6146;48.128;11.476;2023-02-15T01:35:05;33.63;;;16.27;;
12165;SDS011;6146;48.128;11.476;2023-02-15T01:37:31;33.13;;;15.40;;
12165;SDS011;6146;48.128;11.476;2023-02-15T01:39:58;30.67;;;16.13;;
12165;SDS011;6146;48.128;11.476;2023-02-15T01:42:25;29.10;;;15.77;;
12165;SDS011;6146;48.128;11.476;2023-02-15T01:44:54;40.07;;;14.63;;
12165;SDS011;6146;48.128;11.476;2023-02-15T01:47:36;32.57;;;16.67;;
12165;SDS011;6146;48.128;11.476;2023-02-15T01:52:38;31.33;;;13.80;;
12165;SDS011;6146;48.128;11.476;2023-02-15T01:55:09;40.23;;;14.57;;
12165;SDS011;6146;48.128;11.476;2023-02-15T01:57:37;22.17;;;14.23;;
12165;SDS011;6146;48.128;11.476;2023-02-15T02:00:03;38.20;;;15.90;;
12165;SDS011;6146;48.128;11.476;2023-02-15T02:02:31;42.03;;;15.87;;
12165;SDS011;6146;48.128;11.476;2023-02-15T02:04:58;44.30;;;15.60;;
12165;SDS011;6146;48.128;11.476;2023-02-15T02:07:28;71.90;;;17.57;;
12165;SDS011;6146;48.128;11.476;2023-02-15T02:09:57;92.13;;;19.90;;
12165;SDS011;6146;48.128;11.476;2023-02-15T02:12:23;32.40;;;13.67;;
12165;SDS011;6146;48.128;11.476;2023-02-15T02:14:49;34.67;;;14.60;;
12165;SDS011;6146;48.128;11.476;2023-02-15T02:20:30;37.80;;;14.00;;
12165;SDS011;6146;48.128;11.476;2023-02-15T02:23:22;31.07;;;13.40;;
12165;SDS011;6146;48.128;11.476;2023-02-15T02:31:02;79.23;;;19.13;;
12165;SDS011;6146;48.128;11.476;2023-02-15T02:39:09;39.63;;;16.07;;
12165;SDS011;6146;48.128;11.476;2023-02-15T02:44:25;44.63;;;14.70;;
12165;SDS011;6146;48.128;11.476;2023-02-15T02:49:31;18.10;;;12.77;;
12165;SDS011;6146;48.128;11.476;2023-02-15T02:52:02;36.70;;;14.90;;
12165;SDS011;6146;48.128;11.476;2023-02-15T02:54:48;24.37;;;13.23;;
12165;SDS011;6146;48.128;11.476;2023-02-15T02:57:14;20.60;;;12.10;;
12165;SDS011;6146;48.128;11.476;2023-02-15T02:59:41;68.47;;;17.30;;
12165;SDS011;6146;48.128;11.476;2023-02-15T03:02:16;25.63;;;13.63;;
12165;SDS011;6146;48.128;11.476;2023-02-15T03:04:49;21.37;;;12.90;;
12165;SDS011;6146;48.128;11.476;2023-02-15T03:07:23;58.80;;;15.27;;
12165;SDS011;6146;48.128;11.476;2023-02-15T03:09:53;18.80;;;12.93;;
12165;SDS011;6146;48.128;11.476;2023-02-15T03:12:22;18.87;;;12.37;;
12165;SDS011;6146;48.128;11.476;2023-02-15T03:14:53;20.40;;;12.53;;
12165;SDS011;6146;48.128;11.476;2023-02-15T03:17:22;21.63;;;12.33;;
12165;SDS011;6146;48.128;11.476;2023-02-15T03:19:51;14.13;;;12.13;;
12165;SDS011;6146;48.128;11.476;2023-02-15T03:22:23;16.87;;;11.50;;
12165;SDS011;6146;48.128;11.476;2023-02-15T03:24:58;17.77;;;12.27;;
12165;SDS011;6146;48.128;11.476;2023-02-15T03:27:28;22.17;;;12.03;;
12165;SDS011;6146;48.128;11.476;2023-02-15T03:29:58;28.80;;;13.27;;
12165;SDS011;6146;48.128;11.476;2023-02-15T03:32:26;15.07;;;11.73;;
12165;SDS011;6146;48.128;11.476;2023-02-15T03:34:55;20.43;;;11.37;;
12165;SDS011;6146;48.128;11.476;2023-02-15T03:39:53;41.07;;;12.73;;
12165;SDS011;6146;48.128;11.476;2023-02-15T03:42:42;16.87;;;11.07;;
12165;SDS011;6146;48.128;11.476;2023-02-15T03:45:10;13.10;;;11.57;;
12165;SDS011;6146;48.128;11.476;2023-02-15T03:47:43;14.93;;;11.57;;
12165;SDS011;6146;48.128;11.476;2023-02-15T03:50:18;13.07;;;10.73;;
12165;SDS011;6146;48.128;11.476;2023-02-15T03:53:07;16.00;;;11.40;;
12165;SDS011;6146;48.128;11.476;2023-02-15T03:55:36;14.57;;;10.70;;
12165;SDS011;6146;48.128;11.476;2023-02-15T03:58:02;26.97;;;12.40;;
12165;SDS011;6146;48.128;11.476;2023-02-15T04:00:59;14.87;;;10.73;;
12165;SDS011;6146;48.128;11.476;2023-02-15T04:03:53;12.37;;;10.03;;
12165;SDS011;6146;48.128;11.476;2023-02-15T04:06:24;74.10;;;15.33;;
12165;SDS011;6146;48.128;11.476;2023-02-15T04:08:49;23.73;;;10.57;;
12165;SDS011;6146;48.128;11.476;2023-02-15T04:11:33;17.87;;;11.33;;
12165;SDS011;6146;48.128;11.476;2023-02-15T04:13:59;26.87;;;11.90;;
12165;SDS011;6146;48.128;11.476;2023-02-15T04:16:44;18.23;;;10.67;;
12165;SDS011;6146;48.128;11.476;2023-02-15T04:19:10;11.27;;;9.33;;
12165;SDS011;6146;48.128;11.476;2023-02-15T04:21:54;25.70;;;11.50;;
12165;SDS011;6146;48.128;11.476;2023-02-15T04:24:38;52.93;;;14.47;;
12165;SDS011;6146;48.128;11.476;2023-02-15T04:27:22;30.30;;;11.97;;
12165;SDS011;6146;48.128;11.476;2023-02-15T04:29:48;17.60;;;11.80;;
12165;SDS011;6146;48.128;11.476;2023-02-15T04:32:14;41.07;;;12.23;;
12165;SDS011;6146;48.128;11.476;2023-02-15T04:34:40;34.67;;;13.13;;
12165;SDS011;6146;48.128;11.476;2023-02-15T04:37:05;30.20;;;11.90;;
12165;SDS011;6146;48.128;11.476;2023-02-15T04:39:31;13.07;;;10.60;;
12165;SDS011;6146;48.128;11.476;2023-02-15T04:41:57;19.43;;;11.50;;
12165;SDS011;6146;48.128;11.476;2023-02-15T04:44:22;20.70;;;10.83;;
12165;SDS011;6146;48.128;11.476;2023-02-15T04:46:48;32.13;;;11.23;;
12165;SDS011;6146;48.128;11.476;2023-02-15T04:49:14;12.40;;;10.30;;
12165;SDS011;6146;48.128;11.476;2023-02-15T04:51:39;16.57;;;10.93;;
12165;SDS011;6146;48.128;11.476;2023-02-15T04:54:05;19.07;;;11.20;;
12165;SDS011;6146;48.128;11.476;2023-02-15T04:56:30;17.07;;;9.77;;
12165;SDS011;6146;48.128;11.476;2023-02-15T04:58:58;13.67;;;10.53;;
12165;SDS011;6146;48.128;11.476;2023-02-15T05:01:23;15.00;;;10.17;;
12165;SDS011;6146;48.128;11.476;2023-02-15T05:03:49;14.93;;;10.00;;
12165;SDS011;6146;48.128;11.476;2023-02-15T05:06:14;15.67;;;11.03;;
12165;SDS011;6146;48.128;11.476;2023-02-15T05:08:40;20.73;;;11.77;;
12165;SDS011;6146;48.128;11.476;2023-02-15T05:11:05;29.00;;;12.43;;
12165;SDS011;6146;48.128;11.476;2023-02-15T05:13:31;19.80;;;10.90;;
12165;SDS011;6146;48.128;11.476;2023-02-15T05:15:57;27.20;;;12.17;;
12165;SDS011;6146;48.128;11.476;2023-02-15T05:18:22;12.63;;;10.83;;
12165;SDS011;6146;48.128;11.476;2023-02-15T05:20:48;51.93;;;12.87;;
12165;SDS011;6146;48.128;11.476;2023-02-15T05:23:14;13.00;;;10.73;;
12165;SDS011;6146;48.128;11.476;2023-02-15T05:25:39;13.97;;;10.87;;
12165;SDS011;6146;48.128;11.476;2023-02-15T05:28:25;21.67;;;11.17;;
12165;SDS011;6146;48.128;11.476;2023-02-15T05:33:34;13.67;;;11.63;;
12165;SDS011;6146;48.128;11.476;2023-02-15T05:36:00;16.90;;;11.20;;
12165;SDS011;6146;48.128;11.476;2023-02-15T05:38:26;14.57;;;11.27;;
12165;SDS011;6146;48.128;11.476;2023-02-15T05:40:52;21.97;;;11.77;;
12165;SDS011;6146;48.128;11.476;2023-02-15T05:43:17;31.07;;;11.77;;
12165;SDS011;6146;48.128;11.476;2023-02-15T05:45:51;16.13;;;11.67;;
12165;SDS011;6146;48.128;11.476;2023-02-15T05:48:18;19.87;;;12.17;;
12165;SDS011;6146;48.128;11.476;2023-02-15T05:50:45;18.40;;;11.67;;
12165;SDS011;6146;48.128;11.476;2023-02-15T05:53:11;14.60;;;11.20;;
12165;SDS011;6146;48.128;11.476;2023-02-15T05:55:37;13.30;;;11.50;;
12165;SDS011;6146;48.128;11.476;2023-02-15T05:58:03;18.43;;;13.37;;
12165;SDS011;6146;48.128;11.476;2023-02-15T06:00:29;14.00;;;11.37;;
12165;SDS011;6146;48.128;11.476;2023-02-15T06:02:55;14.17;;;12.07;;
12165;SDS011;6146;48.128;11.476;2023-02-15T06:05:20;13.37;;;11.10;;
12165;SDS011;6146;48.128;11.476;2023-02-15T06:07:46;14.10;;;11.73;;
12165;SDS011;6146;48.128;11.476;2023-02-15T06:10:11;15.53;;;11.73;;
12165;SDS011;6146;48.128;11.476;2023-02-15T06:12:37;13.50;;;11.23;;
12165;SDS011;6146;48.128;11.476;2023-02-15T06:15:03;13.33;;;11.33;;
12165;SDS011;6146;48.128;11.476;2023-02-15T06:17:29;16.13;;;12.67;;
12165;SDS011;6146;48.128;11.476;2023-02-15T06:19:55;14.20;;;11.47;;
12165;SDS011;6146;48.128;11.476;2023-02-15T06:22:20;15.10;;;11.87;;
12165;SDS011;6146;48.128;11.476;2023-02-15T06:24:46;13.23;;;10.97;;
12165;SDS011;6146;48.128;11.476;2023-02-15T06:27:12;12.67;;;10.60;;
12165;SDS011;6146;48.128;11.476;2023-02-15T06:29:37;12.20;;;10.60;;
12165;SDS011;6146;48.128;11.476;2023-02-15T06:32:04;14.40;;;10.40;;
12165;SDS011;6146;48.128;11.476;2023-02-15T06:34:30;11.83;;;10.40;;
12165;SDS011;6146;48.128;11.476;2023-02-15T06:36:55;12.67;;;10.47;;
12165;SDS011;6146;48.128;11.476;2023-02-15T06:39:21;15.00;;;12.20;;
12165;SDS011;6146;48.128;11.476;2023-02-15T06:41:47;13.30;;;11.20;;
12165;SDS011;6146;48.128;11.476;2023-02-15T06:44:13;13.53;;;11.60;;
12165;SDS011;6146;48.128;11.476;2023-02-15T06:46:39;13.83;;;11.40;;
12165;SDS011;6146;48.128;11.476;2023-02-15T06:49:05;14.27;;;11.70;;
12165;SDS011;6146;48.128;11.476;2023-02-15T06:51:30;14.00;;;11.53;;
12165;SDS011;6146;48.128;11.476;2023-02-15T06:53:56;13.20;;;11.07;;
12165;SDS011;6146;48.128;11.476;2023-02-15T06:56:21;14.37;;;11.40;;
12165;SDS011;6146;48.128;11.476;2023-02-15T06:58:47;13.60;;;11.63;;
12165;SDS011;6146;48.128;11.476;2023-02-15T07:01:14;14.90;;;12.37;;
12165;SDS011;6146;48.128;11.476;2023-02-15T07:03:40;12.77;;;11.13;;
12165;SDS011;6146;48.128;11.476;2023-02-15T07:06:06;14.63;;;12.20;;
12165;SDS011;6146;48.128;11.476;2023-02-15T07:08:33;15.80;;;12.30;;
12165;SDS011;6146;48.128;11.476;2023-02-15T07:11:00;13.17;;;11.70;;
12165;SDS011;6146;48.128;11.476;2023-02-15T07:13:44;15.40;;;12.57;;
12165;SDS011;6146;48.128;11.476;2023-02-15T07:16:10;14.57;;;11.90;;
12165;SDS011;6146;48.128;11.476;2023-02-15T07:18:37;15.57;;;11.37;;
12165;SDS011;6146;48.128;11.476;2023-02-15T07:21:02;16.60;;;12.53;;
12165;SDS011;6146;48.128;11.476;2023-02-15T07:23:28;15.47;;;12.03;;
12165;SDS011;6146;48.128;11.476;2023-02-15T07:25:57;15.37;;;12.07;;
12165;SDS011;6146;48.128;11.476;2023-02-15T07:28:24;15.87;;;12.77;;
12165;SDS011;6146;48.128;11.476;2023-02-15T07:30:49;15.97;;;12.90;;
12165;SDS011;6146;48.128;11.476;2023-02-15T07:33:15;16.30;;;12.83;;
12165;SDS011;6146;48.128;11.476;2023-02-15T07:35:55;18.57;;;13.87;;
12165;SDS011;6146;48.128;11.476;2023-02-15T07:38:23;15.60;;;12.83;;
12165;SDS011;6146;48.128;11.476;2023-02-15T07:40:50;15.57;;;12.27;;
12165;SDS011;6146;48.128;11.476;2023-02-15T07:43:16;16.50;;;12.33;;
12165;SDS011;6146;48.128;11.476;2023-02-15T07:45:41;15.70;;;13.40;;
12165;SDS011;6146;48.128;11.476;2023-02-15T07:48:07;14.33;;;12.67;;
12165;SDS011;6146;48.128;11.476;2023-02-15T07:50:33;17.77;;;14.53;;
12165;SDS011;6146;48.128;11.476;2023-02-15T07:53:00;14.80;;;13.03;;
12165;SDS011;6146;48.128;11.476;2023-02-15T07:55:27;16.60;;;12.93;;
12165;SDS011;6146;48.128;11.476;2023-02-15T07:57:52;15.90;;;12.70;;
12165;SDS011;6146;48.128;11.476;2023-02-15T08:00:19;16.63;;;12.40;;
12165;SDS011;6146;48.128;11.476;2023-02-15T08:02:50;14.20;;;11.83;;
12165;SDS011;6146;48.128;11.476;2023-02-15T08:05:36;16.57;;;12.47;;
12165;SDS011;6146;48.128;11.476;2023-02-15T08:08:01;14.13;;;12.37;;
12165;SDS011;6146;48.128;11.476;2023-02-15T08:10:27;15.53;;;12.73;;
12165;SDS011;6146;48.128;11.476;2023-02-15T08:13:12;14.00;;;11.73;;
12165;SDS011;6146;48.128;11.476;2023-02-15T08:15:37;15.50;;;12.37;;
12165;SDS011;6146;48.128;11.476;2023-02-15T08:18:03;16.10;;;13.13;;
12165;SDS011;6146;48.128;11.476;2023-02-15T08:20:28;18.07;;;12.77;;
12165;SDS011;6146;48.128;11.476;2023-02-15T08:22:54;15.27;;;12.63;;
12165;SDS011;6146;48.128;11.476;2023-02-15T08:25:19;17.33;;;12.63;;
12165;SDS011;6146;48.128;11.476;2023-02-15T08:27:45;14.67;;;12.27;;
12165;SDS011;6146;48.128;11.476;2023-02-15T08:30:10;13.37;;;11.67;;
12165;SDS011;6146;48.128;11.476;2023-02-15T08:32:37;15.70;;;11.77;;
12165;SDS011;6146;48.128;11.476;2023-02-15T08:35:02;15.40;;;13.03;;
12165;SDS011;6146;48.128;11.476;2023-02-15T08:37:28;13.13;;;10.80;;
12165;SDS011;6146;48.128;11.476;2023-02-15T08:39:53;13.27;;;11.80;;
12165;SDS011;6146;48.128;11.476;2023-02-15T08:42:19;11.63;;;10.13;;
12165;SDS011;6146;48.128;11.476;2023-02-15T08:44:45;13.00;;;11.47;;
12165;SDS011;6146;48.128;11.476;2023-02-15T08:47:11;12.93;;;11.47;;
12165;SDS011;6146;48.128;11.476;2023-02-15T08:49:37;13.33;;;11.43;;
12165;SDS011;6146;48.128;11.476;2023-02-15T08:52:02;14.67;;;11.83;;
12165;SDS011;6146;48.128;11.476;2023-02-15T08:54:28;13.67;;;11.17;;
12165;SDS011;6146;48.128;11.476;2023-02-15T08:56:53;14.80;;;11.70;;
12165;SDS011;6146;48.128;11.476;2023-02-15T08:59:20;13.40;;;12.00;;
12165;SDS011;6146;48.128;11.476;2023-02-15T09:01:47;13.97;;;11.90;;
12165;SDS011;6146;48.128;11.476;2023-02-15T09:04:14;13.07;;;11.77;;
12165;SDS011;6146;48.128;11.476;2023-02-15T09:06:41;15.07;;;12.30;;
12165;SDS011;6146;48.128;11.476;2023-02-15T09:09:09;15.80;;;11.73;;
12165;SDS011;6146;48.128;11.476;2023-02-15T09:11:37;13.80;;;12.13;;
12165;SDS011;6146;48.128;11.476;2023-02-15T09:14:07;14.10;;;12.07;;
12165;SDS011;6146;48.128;11.476;2023-02-15T09:16:38;13.73;;;11.57;;
12165;SDS011;6146;48.128;11.476;2023-02-15T09:19:05;13.00;;;11.60;;
12165;SDS011;6146;48.128;11.476;2023-02-15T09:21:32;14.03;;;12.53;;
12165;SDS011;6146;48.128;11.476;2023-02-15T09:24:01;15.00;;;11.87;;
12165;SDS011;6146;48.128;11.476;2023-02-15T09:26:28;14.67;;;12.17;;
12165;SDS011;6146;48.128;11.476;2023-02-15T09:28:56;15.50;;;12.13;;
12165;SDS011;6146;48.128;11.476;2023-02-15T09:31:26;13.17;;;11.87;;
12165;SDS011;6146;48.128;11.476;2023-02-15T09:33:54;13.37;;;11.27;;
12165;SDS011;6146;48.128;11.476;2023-02-15T09:36:28;13.37;;;11.60;;
12165;SDS011;6146;48.128;11.476;2023-02-15T09:39:00;12.73;;;11.47;;
12165;SDS011;6146;48.128;11.476;2023-02-15T09:56:04;12.57;;;11.13;;
12165;SDS011;6146;48.128;11.476;2023-02-15T10:04:02;11.90;;;10.70;;
12165;SDS011;6146;48.128;11.476;2023-02-15T10:18:30;13.93;;;11.10;;
12165;SDS011;6146;48.128;11.476;2023-02-15T10:27:18;14.07;;;12.10;;
12165;SDS011;6146;48.128;11.476;2023-02-15T10:29:58;11.77;;;10.60;;
12165;SDS011;6146;48.128;11.476;2023-02-15T10:32:26;11.80;;;10.47;;
12165;SDS011;6146;48.128;11.476;2023-02-15T10:40:46;12.87;;;11.57;;
12165;SDS011;6146;48.128;11.476;2023-02-15T10:54:05;13.00;;;11.70;;
12165;SDS011;6146;48.128;11.476;2023-02-15T11:09:50;11.70;;;10.50;;
12165;SDS011;6146;48.128;11.476;2023-02-15T11:12:22;11.97;;;10.77;;
12165;SDS011;6146;48.128;11.476;2023-02-15T11:17:29;15.17;;;11.60;;
12165;SDS011;6146;48.128;11.476;2023-02-15T11:22:35;12.60;;;10.40;;
12165;SDS011;6146;48.128;11.476;2023-02-15T11:25:01;13.23;;;11.77;;
12165;SDS011;6146;48.128;11.476;2023-02-15T11:27:39;13.87;;;11.67;;
12165;SDS011;6146;48.128;11.476;2023-02-15T11:30:13;13.37;;;11.77;;
12165;SDS011;6146;48.128;11.476;2023-02-15T11:32:40;12.60;;;11.20;;
12165;SDS011;6146;48.128;11.476;2023-02-15T11:37:44;12.63;;;11.33;;
12165;SDS011;6146;48.128;11.476;2023-02-15T11:42:51;12.03;;;10.83;;
12165;SDS011;6146;48.128;11.476;2023-02-15T11:47:48;11.87;;;10.70;;
12165;SDS011;6146;48.128;11.476;2023-02-15T11:50:15;10.93;;;9.93;;
12165;SDS011;6146;48.128;11.476;2023-02-15T11:52:47;12.60;;;11.30;;
12165;SDS011;6146;48.128;11.476;2023-02-15T11:55:14;11.82;;;10.63;;
12165;SDS011;6146;48.128;11.476;2023-02-15T11:57:46;12.23;;;11.10;;
12165;SDS011;6146;48.128;11.476;2023-02-15T12:00:38;12.43;;;11.00;;
12165;SDS011;6146;48.128;11.476;2023-02-15T12:03:14;11.77;;;10.70;;
12165;SDS011;6146;48.128;11.476;2023-02-15T12:05:46;12.13;;;10.93;;
12165;SDS011;6146;48.128;11.476;2023-02-15T12:08:21;12.50;;;11.25;;
12165;SDS011;6146;48.128;11.476;2023-02-15T12:10:57;11.95;;;10.88;;
12165;SDS011;6146;48.128;11.476;2023-02-15T12:13:55;12.57;;;11.38;;
12165;SDS011;6146;48.128;11.476;2023-02-15T12:16:25;13.17;;;11.90;;
12165;SDS011;6146;48.128;11.476;2023-02-15T12:18:53;14.00;;;12.60;;
12165;SDS011;6146;48.128;11.476;2023-02-15T12:21:40;14.13;;;12.60;;
12165;SDS011;6146;48.128;11.476;2023-02-15T12:24:16;14.27;;;12.80;;
12165;SDS011;6146;48.128;11.476;2023-02-15T12:26:45;13.87;;;12.57;;
12165;SDS011;6146;48.128;11.476;2023-02-15T12:29:53;14.57;;;13.07;;
12165;SDS011;6146;48.128;11.476;2023-02-15T12:32:26;14.93;;;13.30;;
12165;SDS011;6146;48.128;11.476;2023-02-15T12:35:16;16.33;;;13.13;;
12165;SDS011;6146;48.128;11.476;2023-02-15T12:37:54;16.00;;;14.50;;
12165;SDS011;6146;48.128;11.476;2023-02-15T12:40:31;14.87;;;13.47;;
12165;SDS011;6146;48.128;11.476;2023-02-15T12:42:58;14.03;;;12.63;;
12165;SDS011;6146;48.128;11.476;2023-02-15T12:45:34;14.97;;;13.23;;
12165;SDS011;6146;48.128;11.476;2023-02-15T12:48:34;13.70;;;12.30;;
12165;SDS011;6146;48.128;11.476;2023-02-15T12:50:53;14.57;;;13.27;;
12165;SDS011;6146;48.128;11.476;2023-02-15T12:53:34;14.93;;;13.43;;
12165;SDS011;6146;48.128;11.476;2023-02-15T12:56:04;15.43;;;13.68;;
12165;SDS011;6146;48.128;11.476;2023-02-15T12:58:35;16.63;;;14.98;;
12165;SDS011;6146;48.128;11.476;2023-02-15T13:03:34;14.80;;;12.57;;
12165;SDS011;6146;48.128;11.476;2023-02-15T13:06:03;16.05;;;14.43;;
12165;SDS011;6146;48.128;11.476;2023-02-15T13:08:33;14.40;;;12.88;;
12165;SDS011;6146;48.128;11.476;2023-02-15T13:11:05;14.27;;;12.82;;
12165;SDS011;6146;48.128;11.476;2023-02-15T13:14:30;16.77;;;14.95;;
12165;SDS011;6146;48.128;11.476;2023-02-15T13:16:48;15.32;;;13.40;;
12165;SDS011;6146;48.128;11.476;2023-02-15T13:19:18;16.95;;;14.10;;
12165;SDS011;6146;48.128;11.476;2023-02-15T13:22:00;15.18;;;13.68;;
12165;SDS011;6146;48.128;11.476;2023-02-15T13:24:37;15.57;;;13.98;;
12165;SDS011;6146;48.128;11.476;2023-02-15T13:27:08;16.35;;;14.68;;
12165;SDS011;6146;48.128;11.476;2023-02-15T13:29:38;16.17;;;14.47;;
12165;SDS011;6146;48.128;11.476;2023-02-15T13:32:11;18.27;;;14.20;;
12165;SDS011;6146;48.128;11.476;2023-02-15T13:34:48;15.80;;;14.17;;
12165;SDS011;6146;48.128;11.476;2023-02-15T13:37:21;18.63;;;15.33;;
12165;SDS011;6146;48.128;11.476;2023-02-15T13:40:00;18.90;;;16.37;;
12165;SDS011;6146;48.128;11.476;2023-02-15T13:42:52;20.63;;;16.77;;
12165;SDS011;6146;48.128;11.476;2023-02-15T14:05:05;18.37;;;16.00;;
12165;SDS011;6146;48.128;11.476;2023-02-15T14:07:41;18.37;;;16.47;;
12165;SDS011;6146;48.128;11.476;2023-02-15T14:13:31;20.53;;;17.73;;
12165;SDS011;6146;48.128;11.476;2023-02-15T14:26:51;22.27;;;16.20;;
12165;SDS011;6146;48.128;11.476;2023-02-15T14:29:38;21.27;;;16.03;;
12165;SDS011;6146;48.128;11.476;2023-02-15T14:35:21;18.70;;;15.87;;
12165;SDS011;6146;48.128;11.476;2023-02-15T14:48:55;20.87;;;15.67;;
12165;SDS011;6146;48.128;11.476;2023-02-15T14:56:43;18.17;;;14.90;;
12165;SDS011;6146;48.128;11.476;2023-02-15T15:07:55;20.93;;;16.60;;
12165;SDS011;6146;48.128;11.476;2023-02-15T15:12:51;16.77;;;15.03;;
12165;SDS011;6146;48.128;11.476;2023-02-15T15:21:03;19.50;;;15.67;;
12165;SDS011;6146;48.128;11.476;2023-02-15T15:47:26;18.07;;;14.57;;
12165;SDS011;6146;48.128;11.476;2023-02-15T15:50:18;17.67;;;14.50;;
12165;SDS011;6146;48.128;11.476;2023-02-15T15:52:48;15.83;;;14.00;;
12165;SDS011;6146;48.128;11.476;2023-02-15T15:55:17;19.13;;;14.83;;
12165;SDS011;6146;48.128;11.476;2023-02-15T15:57:45;21.00;;;14.63;;
12165;SDS011;6146;48.128;11.476;2023-02-15T16:03:16;19.93;;;15.20;;
12165;SDS011;6146;48.128;11.476;2023-02-15T16:05:45;17.33;;;14.57;;
12165;SDS011;6146;48.128;11.476;2023-02-15T16:08:10;18.67;;;14.80;;
12165;SDS011;6146;48.128;11.476;2023-02-15T16:10:36;18.13;;;15.20;;
12165;SDS011;6146;48.128;11.476;2023-02-15T16:13:02;17.90;;;15.23;;
12165;SDS011;6146;48.128;11.476;2023-02-15T16:15:33;17.27;;;14.83;;
12165;SDS011;6146;48.128;11.476;2023-02-15T16:18:02;17.60;;;15.70;;
12165;SDS011;6146;48.128;11.476;2023-02-15T16:20:32;17.63;;;14.67;;
12165;SDS011;6146;48.128;11.476;2023-02-15T16:28:12;20.23;;;16.30;;
12165;SDS011;6146;48.128;11.476;2023-02-15T16:30:38;19.30;;;16.40;;
12165;SDS011;6146;48.128;11.476;2023-02-15T16:33:09;20.30;;;15.90;;
12165;SDS011;6146;48.128;11.476;2023-02-15T16:35:38;19.60;;;15.47;;
12165;SDS011;6146;48.128;11.476;2023-02-15T16:38:05;19.43;;;16.23;;
12165;SDS011;6146;48.128;11.476;2023-02-15T16:40:47;19.63;;;16.10;;
12165;SDS011;6146;48.128;11.476;2023-02-15T16:43:22;22.23;;;16.43;;
12165;SDS011;6146;48.128;11.476;2023-02-15T16:45:52;21.33;;;17.03;;
12165;SDS011;6146;48.128;11.476;2023-02-15T16:48:32;20.93;;;16.90;;
12165;SDS011;6146;48.128;11.476;2023-02-15T16:51:03;21.47;;;16.53;;
12165;SDS011;6146;48.128;11.476;2023-02-15T16:53:29;20.27;;;17.23;;
12165;SDS011;6146;48.128;11.476;2023-02-15T16:55:56;22.73;;;17.67;;
12165;SDS011;6146;48.128;11.476;2023-02-15T16:58:29;22.43;;;17.27;;
12165;SDS011;6146;48.128;11.476;2023-02-15T17:01:10;21.47;;;17.03;;
12165;SDS011;6146;48.128;11.476;2023-02-15T17:03:38;19.80;;;16.93;;
12165;SDS011;6146;48.128;11.476;2023-02-15T17:06:05;20.97;;;17.97;;
12165;SDS011;6146;48.128;11.476;2023-02-15T17:08:48;24.30;;;18.17;;
12165;SDS011;6146;48.128;11.476;2023-02-15T17:11:15;22.77;;;17.40;;
12165;SDS011;6146;48.128;11.476;2023-02-15T17:16:34;20.63;;;17.73;;
12165;SDS011;6146;48.128;11.476;2023-02-15T17:19:02;26.90;;;19.53;;
12165;SDS011;6146;48.128;11.476;2023-02-15T17:21:40;27.63;;;19.87;;
12165;SDS011;6146;48.128;11.476;2023-02-15T17:24:58;27.33;;;19.27;;
12165;SDS011;6146;48.128;11.476;2023-02-15T17:27:03;28.07;;;19.60;;
12165;SDS011;6146;48.128;11.476;2023-02-15T17:29:36;31.10;;;21.03;;
12165;SDS011;6146;48.128;11.476;2023-02-15T17:32:03;27.33;;;20.97;;
12165;SDS011;6146;48.128;11.476;2023-02-15T17:34:41;29.00;;;19.77;;
12165;SDS011;6146;48.128;11.476;2023-02-15T17:39:56;31.03;;;21.53;;
12165;SDS011;6146;48.128;11.476;2023-02-15T17:42:23;26.93;;;21.70;;
12165;SDS011;6146;48.128;11.476;2023-02-15T17:44:48;27.47;;;20.20;;
12165;SDS011;6146;48.128;11.476;2023-02-15T17:47:15;25.53;;;20.10;;
12165;SDS011;6146;48.128;11.476;2023-02-15T17:49:43;26.40;;;20.20;;
12165;SDS011;6146;48.128;11.476;2023-02-15T17:52:12;27.00;;;21.73;;
12165;SDS011;6146;48.128;11.476;2023-02-15T17:54:39;25.27;;;19.13;;
12165;SDS011;6146;48.128;11.476;2023-02-15T17:57:23;27.67;;;20.13;;
12165;SDS011;6146;48.128;11.476;2023-02-15T17:59:50;28.40;;;21.13;;
12165;SDS011;6146;48.128;11.476;2023-02-15T18:02:35;30.33;;;21.83;;
12165;SDS011;6146;48.128;11.476;2023-02-15T18:05:19;29.40;;;22.17;;
12165;SDS011;6146;48.128;11.476;2023-02-15T18:08:04;27.73;;;20.67;;
12165;SDS011;6146;48.128;11.476;2023-02-15T18:10:53;34.73;;;22.23;;
12165;SDS011;6146;48.128;11.476;2023-02-15T18:13:37;32.13;;;22.60;;
12165;SDS011;6146;48.128;11.476;2023-02-15T18:16:02;30.00;;;22.20;;
12165;SDS011;6146;48.128;11.476;2023-02-15T18:18:28;32.57;;;22.77;;